Time;durP1;ratioP1;P1;durP2;ratioP2;P2;SDS_P1;SDS_P2;PMS_P1;PMS_P2;Temp;Humidity;BMP_temperature;BMP_pressure;BME280_temperature;BME280_humidity;BME280_pressure;Samples;Min_cycle;Max_cycle;Signal;HPM_P1;HPM_P2
2021/08/22 00:00:26;;;;;;;14.10;12.67;;;18.70;99.90;;;;;;6264470;22;20400;-90
2021/08/22 00:02:52;;;;;;;14.00;12.80;;;18.80;99.90;;;;;;6264515;22;20389;-90
2021/08/22 00:05:18;;;;;;;14.70;13.40;;;18.90;99.90;;;;;;6261314;22;20169;-89
2021/08/22 00:07:44;;;;;;;16.40;15.00;;;19.10;99.90;;;;;;6264388;22;20162;-90
2021/08/22 00:10:10;;;;;;;14.57;13.17;;;19.10;99.90;;;;;;6263295;22;20747;-90
2021/08/22 00:12:36;;;;;;;13.33;12.13;;;19.00;99.90;;;;;;6264774;22;20955;-90
2021/08/22 00:15:02;;;;;;;12.53;11.50;;;18.90;99.90;;;;;;6264710;22;20421;-90
2021/08/22 00:17:28;;;;;;;11.73;10.67;;;18.80;99.90;;;;;;6263329;22;20601;-90
2021/08/22 00:19:54;;;;;;;11.97;10.77;;;18.80;99.90;;;;;;6264294;22;20425;-90
2021/08/22 00:22:19;;;;;;;12.10;11.00;;;18.70;99.90;;;;;;6263877;22;20158;-90
2021/08/22 00:24:45;;;;;;;12.13;11.03;;;18.70;99.90;;;;;;6264270;22;20627;-89
2021/08/22 00:27:11;;;;;;;11.60;10.63;;;18.70;99.90;;;;;;6263839;22;20162;-89
2021/08/22 00:29:36;;;;;;;12.53;11.53;;;18.80;99.90;;;;;;6265520;22;20247;-89
2021/08/22 00:32:02;;;;;;;17.83;12.03;;;18.80;99.90;;;;;;6265823;22;20150;-90
2021/08/22 00:34:28;;;;;;;12.47;11.27;;;18.80;99.90;;;;;;6263507;22;20166;-91
2021/08/22 00:36:55;;;;;;;13.47;12.27;;;18.80;99.90;;;;;;6263716;22;20475;-92
2021/08/22 00:39:25;;;;;;;9.90;7.83;;;18.60;99.90;;;;;;6263208;22;20167;-89
2021/08/22 00:41:51;;;;;;;7.67;6.97;;;18.80;99.90;;;;;;6238019;22;20871;-88
2021/08/22 00:44:17;;;;;;;9.97;7.23;;;18.70;99.90;;;;;;6239271;22;20393;-89
2021/08/22 00:46:42;;;;;;;7.23;5.10;;;18.30;99.90;;;;;;6239020;22;20437;-88
2021/08/22 00:49:08;;;;;;;3.90;3.40;;;18.00;99.90;;;;;;6263700;22;20198;-89
2021/08/22 00:51:35;;;;;;;3.50;3.20;;;17.80;99.90;;;;;;6263263;22;20162;-89
2021/08/22 00:54:02;;;;;;;5.10;3.23;;;17.60;99.90;;;;;;6240090;22;20253;-87
2021/08/22 00:56:27;;;;;;;3.70;2.70;;;17.40;99.90;;;;;;6238078;22;20925;-88
2021/08/22 00:58:53;;;;;;;4.50;2.67;;;17.40;99.90;;;;;;6264530;22;20432;-88
2021/08/22 01:01:24;;;;;;;3.10;2.80;;;17.30;99.90;;;;;;6262968;22;20163;-88
2021/08/22 01:04:00;;;;;;;3.40;2.57;;;17.20;99.90;;;;;;6263750;22;20162;-88
2021/08/22 01:06:29;;;;;;;3.07;2.40;;;17.20;99.90;;;;;;6263247;22;20723;-88
2021/08/22 01:09:05;;;;;;;4.77;2.27;;;17.20;99.90;;;;;;6238092;22;20443;-88
2021/08/22 01:11:37;;;;;;;2.30;2.10;;;17.30;99.90;;;;;;6264356;22;20405;-89
2021/08/22 01:14:13;;;;;;;2.70;2.40;;;17.30;99.90;;;;;;6263575;22;20384;-89
2021/08/22 01:16:43;;;;;;;4.33;2.83;;;17.30;99.90;;;;;;6264064;22;20452;-90
2021/08/22 01:19:20;;;;;;;3.30;2.80;;;17.40;99.90;;;;;;6264449;22;20902;-90
2021/08/22 01:21:47;;;;;;;2.63;2.40;;;17.40;99.90;;;;;;6237746;22;20393;-88
2021/08/22 01:24:17;;;;;;;2.70;2.47;;;17.40;99.90;;;;;;6263652;22;20875;-88
2021/08/22 01:26:43;;;;;;;3.10;2.80;;;17.50;99.90;;;;;;6264288;22;20404;-88
2021/08/22 01:29:10;;;;;;;3.10;2.80;;;17.40;99.90;;;;;;6262082;22;20493;-88
2021/08/22 01:31:43;;;;;;;3.90;2.80;;;17.40;99.90;;;;;;6264815;22;20815;-88
2021/08/22 01:34:09;;;;;;;3.30;3.00;;;17.40;99.90;;;;;;6288947;22;20381;-89
2021/08/22 01:36:36;;;;;;;3.30;3.00;;;17.50;99.90;;;;;;6264741;22;20393;-88
2021/08/22 01:39:02;;;;;;;3.73;2.87;;;17.50;99.90;;;;;;6262824;22;20883;-89
2021/08/22 01:41:28;;;;;;;3.33;3.00;;;17.40;99.90;;;;;;6264015;22;20404;-89
2021/08/22 01:43:55;;;;;;;3.40;3.10;;;17.30;99.90;;;;;;6263886;22;20185;-89
2021/08/22 01:46:22;;;;;;;3.40;3.13;;;17.20;99.90;;;;;;6262209;22;20701;-89
2021/08/22 01:48:49;;;;;;;3.40;3.10;;;17.20;99.90;;;;;;6263443;22;20476;-88
2021/08/22 01:51:15;;;;;;;5.53;3.33;;;17.10;99.90;;;;;;6263286;22;20401;-89
2021/08/22 01:53:41;;;;;;;3.43;3.13;;;17.20;99.90;;;;;;6263989;22;20409;-89
2021/08/22 01:56:06;;;;;;;3.30;3.00;;;17.20;99.90;;;;;;6259126;22;20188;-88
2021/08/22 01:58:32;;;;;;;3.30;3.00;;;17.20;99.90;;;;;;6207266;23;20257;-89
2021/08/22 02:00:58;;;;;;;3.60;3.13;;;17.40;99.90;;;;;;6206109;23;20170;-88
2021/08/22 02:03:39;;;;;;;4.30;3.90;;;17.50;99.90;;;;;;6206668;23;20166;-88
2021/08/22 02:06:16;;;;;;;3.07;2.80;;;17.40;99.90;;;;;;6205181;23;20397;-88
2021/08/22 02:08:43;;;;;;;4.30;3.90;;;17.50;99.90;;;;;;6207047;23;20528;-88
2021/08/22 02:11:24;;;;;;;4.57;3.67;;;17.50;99.90;;;;;;6206606;23;20774;-88
2021/08/22 02:13:51;;;;;;;3.87;3.57;;;17.40;99.90;;;;;;6207776;23;20412;-89
2021/08/22 02:16:23;;;;;;;4.03;3.10;;;17.30;99.90;;;;;;6204043;23;20735;-88
2021/08/22 02:18:52;;;;;;;6.00;3.73;;;17.20;99.90;;;;;;6206759;23;21164;-89
2021/08/22 02:21:22;;;;;;;4.60;4.20;;;17.10;99.90;;;;;;6206279;23;20400;-88
2021/08/22 02:23:50;;;;;;;4.40;3.97;;;17.10;99.90;;;;;;6207179;23;20405;-89
2021/08/22 02:26:18;;;;;;;4.70;4.30;;;17.10;99.90;;;;;;6208517;23;20393;-88
2021/08/22 02:28:50;;;;;;;5.90;5.40;;;17.10;99.90;;;;;;6206206;23;20442;-89
2021/08/22 02:31:16;;;;;;;6.73;6.13;;;17.10;99.90;;;;;;6205969;23;20396;-88
2021/08/22 02:33:41;;;;;;;4.90;4.40;;;17.20;99.90;;;;;;6205994;23;20484;-89
2021/08/22 02:36:07;;;;;;;6.90;6.23;;;17.50;99.90;;;;;;6206487;23;20167;-88
2021/08/22 02:38:33;;;;;;;10.80;9.90;;;17.50;99.90;;;;;;6208404;23;20167;-88
2021/08/22 02:40:58;;;;;;;11.33;10.33;;;17.50;99.90;;;;;;6206536;23;20179;-88
2021/08/22 02:43:24;;;;;;;7.37;6.67;;;17.30;99.90;;;;;;6206681;23;20170;-87
2021/08/22 02:45:50;;;;;;;5.83;5.33;;;17.30;99.90;;;;;;6207709;23;20163;-88
2021/08/22 02:48:15;;;;;;;7.90;5.43;;;17.20;99.90;;;;;;6206555;23;20194;-88
2021/08/22 02:50:41;;;;;;;6.27;5.67;;;17.20;99.90;;;;;;6205566;23;20606;-88
2021/08/22 02:53:07;;;;;;;8.80;5.33;;;17.00;99.90;;;;;;6208144;23;20169;-88
2021/08/22 02:55:32;;;;;;;5.80;5.40;;;17.00;99.90;;;;;;6208068;23;20613;-89
2021/08/22 02:57:58;;;;;;;7.60;5.80;;;17.00;99.90;;;;;;6233453;22;20265;-88
2021/08/22 03:00:24;;;;;;;6.40;5.90;;;17.00;99.90;;;;;;6261792;22;20162;-88
2021/08/22 03:02:49;;;;;;;6.37;5.77;;;16.90;99.90;;;;;;6264374;22;20522;-88
2021/08/22 03:05:15;;;;;;;7.73;6.40;;;17.00;99.90;;;;;;6263600;22;20609;-88
2021/08/22 03:07:41;;;;;;;7.23;5.63;;;16.90;99.90;;;;;;6266059;22;20158;-89
2021/08/22 03:10:07;;;;;;;6.50;5.90;;;16.90;99.90;;;;;;6263181;22;20172;-88
2021/08/22 03:12:33;;;;;;;6.93;6.33;;;16.90;99.90;;;;;;6239233;22;20492;-88
2021/08/22 03:14:58;;;;;;;8.50;6.20;;;17.00;99.90;;;;;;6264148;22;20404;-87
2021/08/22 03:17:24;;;;;;;7.10;6.30;;;16.90;99.90;;;;;;6265378;22;20593;-88
2021/08/22 03:19:51;;;;;;;6.00;5.50;;;16.90;99.90;;;;;;6264528;22;20173;-88
2021/08/22 03:22:18;;;;;;;6.60;6.00;;;16.80;99.90;;;;;;6263906;22;20170;-87
2021/08/22 03:24:44;;;;;;;6.00;5.40;;;16.80;99.90;;;;;;6238347;22;20396;-88
2021/08/22 03:27:09;;;;;;;5.63;5.13;;;16.80;99.90;;;;;;6238694;22;20597;-88
2021/08/22 03:29:35;;;;;;;5.93;5.40;;;16.80;99.90;;;;;;6263184;22;20465;-88
2021/08/22 03:32:01;;;;;;;5.67;5.13;;;16.70;99.90;;;;;;6291347;22;20632;-87
2021/08/22 03:34:26;;;;;;;6.17;5.57;;;16.70;99.90;;;;;;6266278;22;20165;-87
2021/08/22 03:36:52;;;;;;;7.17;5.93;;;16.80;99.90;;;;;;6264658;22;20477;-88
2021/08/22 03:39:18;;;;;;;6.30;5.80;;;16.70;99.90;;;;;;6262712;22;20166;-88
2021/08/22 03:41:43;;;;;;;6.50;6.00;;;16.70;99.90;;;;;;6264914;22;20492;-88
2021/08/22 03:44:09;;;;;;;5.73;5.23;;;16.70;99.90;;;;;;6266232;22;20196;-89
2021/08/22 03:46:35;;;;;;;6.27;5.67;;;16.70;99.90;;;;;;6264940;22;20490;-88
2021/08/22 03:49:00;;;;;;;5.70;5.20;;;16.70;99.90;;;;;;6265689;22;20640;-88
2021/08/22 03:51:27;;;;;;;6.87;6.27;;;16.70;99.90;;;;;;6263924;22;20163;-88
2021/08/22 03:53:53;;;;;;;5.80;5.30;;;16.60;99.90;;;;;;6266970;22;20146;-88
2021/08/22 03:56:18;;;;;;;6.80;6.27;;;16.60;99.90;;;;;;6265167;22;20416;-89
2021/08/22 03:58:44;;;;;;;7.20;6.40;;;16.60;99.90;;;;;;6265919;22;20424;-89
2021/08/22 04:01:10;;;;;;;6.07;5.50;;;16.60;99.90;;;;;;6263916;22;20211;-89
2021/08/22 04:03:40;;;;;;;6.47;5.97;;;16.70;99.90;;;;;;6266025;22;20166;-89
2021/08/22 04:06:06;;;;;;;6.83;6.20;;;16.70;99.90;;;;;;6266503;22;20154;-89
2021/08/22 04:08:36;;;;;;;7.70;6.30;;;16.70;99.90;;;;;;6239112;22;20466;-88
2021/08/22 04:11:02;;;;;;;6.93;6.27;;;16.70;99.90;;;;;;6239592;22;20393;-88
2021/08/22 04:13:27;;;;;;;6.70;6.20;;;16.70;99.90;;;;;;6240598;22;20747;-88
2021/08/22 04:15:53;;;;;;;7.20;6.50;;;16.70;99.90;;;;;;6263587;22;20393;-89
2021/08/22 04:18:19;;;;;;;6.73;6.13;;;16.70;99.90;;;;;;6264593;22;20168;-89
2021/08/22 04:20:44;;;;;;;6.80;6.30;;;16.70;99.90;;;;;;6264547;22;20162;-89
2021/08/22 04:23:11;;;;;;;7.00;6.40;;;16.70;99.90;;;;;;6264906;22;20639;-89
2021/08/22 04:25:37;;;;;;;7.00;6.40;;;16.70;99.90;;;;;;6261124;22;20162;-89
2021/08/22 04:28:04;;;;;;;7.00;6.47;;;16.80;99.90;;;;;;6237162;22;20511;-89
2021/08/22 04:30:30;;;;;;;6.27;5.77;;;16.80;99.90;;;;;;6238633;22;20401;-89
2021/08/22 04:32:55;;;;;;;6.57;6.07;;;16.70;99.90;;;;;;6266429;22;20377;-89
2021/08/22 04:35:21;;;;;;;7.00;6.30;;;16.70;99.90;;;;;;6265669;22;20522;-88
2021/08/22 04:37:46;;;;;;;8.10;7.30;;;16.60;99.90;;;;;;6265802;22;20159;-89
2021/08/22 04:40:12;;;;;;;8.17;7.37;;;16.80;99.90;;;;;;6264620;22;20162;-88
2021/08/22 04:42:38;;;;;;;7.27;6.43;;;17.00;99.90;;;;;;6264420;22;20158;-88
2021/08/22 04:45:04;;;;;;;7.13;6.43;;;17.10;99.90;;;;;;6263149;22;20389;-88
2021/08/22 04:47:30;;;;;;;7.37;6.67;;;17.20;99.90;;;;;;6238554;22;20155;-88
2021/08/22 04:49:56;;;;;;;6.50;5.90;;;17.20;99.90;;;;;;6263964;22;20538;-88
2021/08/22 04:52:21;;;;;;;7.13;6.53;;;17.20;99.90;;;;;;6264377;22;20215;-87
2021/08/22 04:54:47;;;;;;;7.20;6.50;;;17.10;99.90;;;;;;6264090;22;20207;-87
2021/08/22 04:57:13;;;;;;;7.17;5.77;;;17.00;99.90;;;;;;6264581;22;20346;-88
2021/08/22 04:59:38;;;;;;;6.30;5.60;;;17.20;99.90;;;;;;6263934;22;20220;-87
2021/08/22 05:02:05;;;;;;;6.30;5.80;;;17.10;99.90;;;;;;6264863;22;20166;-89
2021/08/22 05:04:31;;;;;;;7.13;6.53;;;17.10;99.90;;;;;;6290539;22;20497;-88
2021/08/22 05:06:57;;;;;;;6.47;5.87;;;17.20;99.90;;;;;;6237833;22;20388;-87
2021/08/22 05:09:22;;;;;;;6.17;5.57;;;17.20;99.90;;;;;;6264541;22;20444;-88
2021/08/22 05:11:48;;;;;;;6.87;6.07;;;17.20;99.90;;;;;;6263801;22;20493;-88
2021/08/22 05:14:14;;;;;;;7.17;6.03;;;17.30;99.90;;;;;;6264224;22;20162;-88
2021/08/22 05:16:41;;;;;;;6.50;5.90;;;17.30;99.90;;;;;;6267507;22;20154;-87
2021/08/22 05:19:06;;;;;;;7.03;6.37;;;17.40;99.90;;;;;;6264906;22;20162;-87
2021/08/22 05:21:32;;;;;;;7.07;6.47;;;17.50;99.90;;;;;;6237146;22;20392;-88
2021/08/22 05:23:58;;;;;;;7.13;6.47;;;17.50;99.90;;;;;;6266313;22;20326;-88
2021/08/22 05:26:24;;;;;;;7.17;6.47;;;17.60;99.90;;;;;;6263178;22;20162;-88
2021/08/22 05:28:50;;;;;;;7.57;7.00;;;17.60;99.90;;;;;;6264799;22;20194;-87
2021/08/22 05:31:16;;;;;;;7.87;6.70;;;17.60;99.90;;;;;;6264005;22;20451;-88
2021/08/22 05:33:44;;;;;;;7.80;7.00;;;17.60;99.90;;;;;;6265747;22;20170;-89
2021/08/22 05:36:20;;;;;;;7.20;6.50;;;17.60;99.90;;;;;;6263975;22;20162;-88
2021/08/22 05:38:47;;;;;;;8.57;7.20;;;17.70;99.90;;;;;;6237677;22;20487;-88
2021/08/22 05:41:13;;;;;;;8.40;7.27;;;17.70;99.90;;;;;;6238039;22;20381;-88
2021/08/22 05:43:39;;;;;;;8.20;7.50;;;17.70;99.90;;;;;;6265544;22;20397;-88
2021/08/22 05:46:05;;;;;;;11.00;7.60;;;17.70;99.90;;;;;;6259965;22;20524;-88
2021/08/22 05:48:32;;;;;;;7.60;6.70;;;17.70;99.90;;;;;;6262157;22;20444;-88
2021/08/22 05:50:59;;;;;;;8.63;7.73;;;17.60;99.90;;;;;;6262837;22;20954;-88
2021/08/22 05:53:24;;;;;;;8.27;7.33;;;17.60;99.90;;;;;;6238427;22;20425;-88
2021/08/22 05:55:50;;;;;;;7.90;7.20;;;17.70;99.90;;;;;;6262302;22;20399;-88
2021/08/22 05:58:16;;;;;;;7.20;6.60;;;17.80;99.90;;;;;;6206778;23;20601;-88
2021/08/22 06:00:41;;;;;;;7.80;7.10;;;17.80;99.90;;;;;;6206974;23;20489;-88
2021/08/22 06:03:07;;;;;;;8.13;7.37;;;17.90;99.90;;;;;;6206795;23;20206;-88
2021/08/22 06:05:33;;;;;;;7.40;6.80;;;17.90;99.90;;;;;;6206444;23;20646;-88
2021/08/22 06:07:58;;;;;;;8.17;7.47;;;17.90;99.90;;;;;;6205828;23;20167;-88
2021/08/22 06:10:24;;;;;;;8.57;7.77;;;17.90;99.90;;;;;;6206635;23;20175;-88
2021/08/22 06:12:49;;;;;;;8.03;7.33;;;17.90;99.90;;;;;;6204709;23;20162;-88
2021/08/22 06:15:15;;;;;;;7.73;7.13;;;18.00;99.90;;;;;;6205428;23;20167;-88
2021/08/22 06:17:41;;;;;;;8.67;7.87;;;18.10;99.90;;;;;;6205605;23;20232;-88
2021/08/22 06:20:07;;;;;;;7.60;7.00;;;18.10;99.90;;;;;;6206587;23;20245;-88
2021/08/22 06:22:32;;;;;;;9.10;8.20;;;18.10;99.90;;;;;;6227897;23;20155;-88
2021/08/22 06:24:58;;;;;;;8.60;7.80;;;18.20;99.90;;;;;;6206540;23;20447;-87
2021/08/22 06:27:24;;;;;;;9.13;7.50;;;18.30;99.90;;;;;;6207581;23;20516;-88
2021/08/22 06:29:50;;;;;;;10.17;9.17;;;18.40;99.90;;;;;;6204979;23;20640;-88
2021/08/22 06:32:15;;;;;;;9.50;8.27;;;18.40;99.90;;;;;;6206565;23;20162;-88
2021/08/22 06:34:41;;;;;;;7.80;7.00;;;18.40;99.90;;;;;;6206234;23;20166;-88
2021/08/22 06:37:07;;;;;;;9.53;8.60;;;18.40;99.90;;;;;;6207401;23;20159;-88
2021/08/22 06:39:38;;;;;;;8.60;7.80;;;18.20;99.90;;;;;;6208035;23;20166;-88
2021/08/22 06:42:05;;;;;;;8.30;7.50;;;18.20;99.90;;;;;;6208345;23;20420;-88
2021/08/22 06:44:31;;;;;;;8.27;7.50;;;18.30;99.90;;;;;;6209326;23;20882;-88
2021/08/22 06:46:57;;;;;;;8.63;7.83;;;18.40;99.90;;;;;;6206557;23;20407;-89
2021/08/22 06:49:23;;;;;;;9.17;7.40;;;18.60;99.90;;;;;;6209629;23;20816;-87
2021/08/22 06:51:48;;;;;;;8.37;7.43;;;18.70;99.90;;;;;;6206780;23;20353;-88
2021/08/22 06:54:14;;;;;;;9.00;7.90;;;18.60;99.90;;;;;;6233157;23;20241;-89
2021/08/22 06:56:40;;;;;;;8.33;7.63;;;18.70;99.90;;;;;;6219791;22;20199;-89
2021/08/22 06:59:05;;;;;;;7.67;6.97;;;18.70;99.90;;;;;;6265999;22;20162;-88
2021/08/22 07:01:31;;;;;;;8.20;7.50;;;18.80;99.90;;;;;;6263952;22;20273;-89
2021/08/22 07:03:56;;;;;;;7.63;7.00;;;18.80;99.90;;;;;;6289298;22;20593;-89
2021/08/22 07:06:22;;;;;;;7.40;6.70;;;19.00;99.90;;;;;;6265078;22;20245;-88
2021/08/22 07:08:48;;;;;;;6.73;6.13;;;19.10;99.90;;;;;;6264001;22;20644;-88
2021/08/22 07:11:14;;;;;;;8.23;7.53;;;19.20;99.90;;;;;;6262658;22;20589;-88
2021/08/22 07:13:40;;;;;;;6.87;6.20;;;19.20;99.90;;;;;;6265003;22;20174;-89
2021/08/22 07:16:05;;;;;;;7.20;6.50;;;19.20;99.90;;;;;;6238427;22;20389;-89
2021/08/22 07:18:32;;;;;;;7.17;6.57;;;19.20;99.90;;;;;;6265375;22;20741;-88
2021/08/22 07:20:58;;;;;;;6.53;5.73;;;19.20;99.90;;;;;;6263272;22;20370;-87
2021/08/22 07:23:24;;;;;;;6.80;6.20;;;19.20;99.90;;;;;;6263739;22;20722;-89
2021/08/22 07:25:55;;;;;;;6.20;5.60;;;19.20;99.90;;;;;;6264313;22;20619;-90
2021/08/22 07:28:20;;;;;;;6.00;5.50;;;19.20;99.90;;;;;;6243979;22;20559;-90
2021/08/22 07:31:09;;;;;;;6.33;5.83;;;19.30;99.90;;;;;;6265061;22;20424;-91
2021/08/22 07:33:35;;;;;;;7.83;5.80;;;19.20;99.90;;;;;;6269908;22;20166;-89
2021/08/22 07:36:02;;;;;;;6.20;5.67;;;19.30;99.90;;;;;;6269074;22;20387;-92
2021/08/22 07:38:30;;;;;;;6.27;5.77;;;19.30;99.90;;;;;;6241137;22;20539;-87
2021/08/22 07:40:56;;;;;;;5.63;5.23;;;19.50;99.90;;;;;;6239783;22;20397;-93
2021/08/22 07:43:22;;;;;;;9.10;6.00;;;19.50;99.90;;;;;;6264986;22;20407;-93
2021/08/22 07:45:55;;;;;;;5.93;5.50;;;19.50;99.90;;;;;;6265683;22;20169;-92
2021/08/22 07:48:21;;;;;;;5.77;5.27;;;19.40;99.90;;;;;;6264837;22;20524;-91
2021/08/22 07:50:47;;;;;;;5.90;5.40;;;19.30;99.90;;;;;;6265411;22;20493;-91
2021/08/22 07:53:16;;;;;;;6.07;5.57;;;19.40;99.90;;;;;;6261470;22;20522;-92
2021/08/22 07:55:42;;;;;;;5.80;5.20;;;19.60;99.90;;;;;;6238111;22;20249;-91
2021/08/22 07:58:08;;;;;;;6.27;5.77;;;19.70;99.90;;;;;;6239918;22;20939;-92
2021/08/22 08:00:34;;;;;;;6.27;5.30;;;19.60;99.90;;;;;;6263859;22;20189;-90
2021/08/22 08:02:59;;;;;;;5.80;5.20;;;19.70;99.90;;;;;;6265766;22;20411;-90
2021/08/22 08:05:25;;;;;;;5.37;4.87;;;19.70;99.90;;;;;;6265208;22;20189;-90
2021/08/22 08:07:51;;;;;;;5.23;4.83;;;20.00;99.90;;;;;;6265355;22;20167;-90
2021/08/22 08:10:17;;;;;;;6.40;5.20;;;20.10;99.90;;;;;;6265815;22;20197;-91
2021/08/22 08:12:44;;;;;;;5.97;5.47;;;20.30;99.90;;;;;;6265871;22;20226;-91
2021/08/22 08:15:10;;;;;;;5.83;4.77;;;20.50;99.90;;;;;;6266684;22;20495;-91
2021/08/22 08:17:36;;;;;;;5.30;4.80;;;20.70;99.90;;;;;;6265893;22;20385;-91
2021/08/22 08:20:03;;;;;;;5.43;4.93;;;20.70;99.90;;;;;;6264981;22;20398;-90
2021/08/22 08:22:29;;;;;;;5.00;4.63;;;21.00;99.90;;;;;;6261454;22;20240;-91
2021/08/22 08:24:54;;;;;;;4.73;4.20;;;21.20;99.90;;;;;;6263756;22;20483;-90
2021/08/22 08:27:22;;;;;;;5.30;4.83;;;21.20;99.90;;;;;;6263928;22;20158;-92
2021/08/22 08:29:48;;;;;;;5.57;5.07;;;21.10;99.90;;;;;;6266584;22;20278;-92
2021/08/22 08:32:14;;;;;;;5.13;4.60;;;21.20;99.90;;;;;;6262440;22;20427;-90
2021/08/22 08:34:39;;;;;;;4.63;4.23;;;21.10;99.90;;;;;;6264044;22;20405;-91
2021/08/22 08:37:05;;;;;;;5.00;4.63;;;21.40;99.90;;;;;;6263628;22;20232;-93
2021/08/22 08:39:31;;;;;;;5.70;4.90;;;21.60;99.90;;;;;;6263088;22;20592;-93
2021/08/22 08:42:22;;;;;;;6.10;3.90;;;21.70;99.90;;;;;;6265337;22;20174;-93
2021/08/22 08:44:48;;;;;;;5.70;4.70;;;21.60;99.90;;;;;;6265291;22;20401;-92
2021/08/22 08:47:16;;;;;;;4.87;4.47;;;21.70;99.90;;;;;;6263398;22;20420;-90
2021/08/22 08:50:14;;;;;;;5.10;4.70;;;21.60;99.90;;;;;;6264560;22;20448;-91
2021/08/22 08:52:43;;;;;;;4.73;4.33;;;21.50;99.90;;;;;;6223368;22;20476;-91
2021/08/22 08:55:19;;;;;;;5.00;4.50;;;21.50;99.90;;;;;;6238863;22;20454;-91
2021/08/22 08:57:45;;;;;;;5.73;4.60;;;21.30;99.90;;;;;;6265293;22;20404;-90
2021/08/22 09:00:27;;;;;;;4.70;4.40;;;21.20;99.90;;;;;;6264336;22;20852;-91
2021/08/22 09:02:53;;;;;;;4.97;4.53;;;21.20;99.90;;;;;;6265600;22;20161;-92
2021/08/22 09:05:57;;;;;;;5.47;5.03;;;21.20;99.90;;;;;;6265050;22;20462;-90
2021/08/22 09:08:45;;;;;;;4.90;4.47;;;21.30;99.90;;;;;;6263478;22;20225;-90
2021/08/22 09:11:48;;;;;;;4.73;4.30;;;21.30;99.90;;;;;;6193811;22;20393;-90
2021/08/22 09:14:45;;;;;;;4.90;4.50;;;21.20;99.90;;;;;;6264745;22;20882;-91
2021/08/22 09:17:48;;;;;;;5.90;4.63;;;21.50;99.90;;;;;;6238869;22;20394;-91
2021/08/22 09:20:29;;;;;;;5.33;4.20;;;21.80;99.90;;;;;;6262823;22;20392;-92
2021/08/22 09:23:26;;;;;;;4.80;4.43;;;21.70;99.90;;;;;;6240343;22;20611;-92
2021/08/22 09:26:16;;;;;;;4.80;4.40;;;21.60;99.90;;;;;;6237779;22;20416;-89
2021/08/22 09:29:40;;;;;;;5.40;4.90;;;21.60;99.90;;;;;;6234955;22;20441;-90
2021/08/22 09:32:44;;;;;;;5.10;4.70;;;21.30;99.90;;;;;;6117484;22;20423;-90
2021/08/22 09:35:19;;;;;;;4.97;4.40;;;21.60;99.90;;;;;;6264212;22;20400;-91
2021/08/22 09:38:19;;;;;;;5.10;4.60;;;21.90;99.90;;;;;;6239560;22;21150;-91
2021/08/22 09:41:23;;;;;;;4.83;4.43;;;22.00;99.90;;;;;;6237589;22;20397;-89
2021/08/22 09:44:13;;;;;;;5.23;4.73;;;21.80;99.90;;;;;;6265087;22;20455;-92
2021/08/22 09:46:48;;;;;;;5.50;4.97;;;21.80;99.90;;;;;;6238995;22;20397;-89
2021/08/22 09:49:51;;;;;;;5.70;5.20;;;21.80;99.90;;;;;;6236087;22;20440;-90
2021/08/22 09:52:58;;;;;;;4.43;4.13;;;21.80;99.90;;;;;;6263199;22;20388;-89
2021/08/22 09:55:35;;;;;;;5.10;4.70;;;22.10;99.90;;;;;;6264185;22;20408;-90
2021/08/22 09:58:35;;;;;;;5.63;5.03;;;22.20;99.90;;;;;;6239673;22;20485;-91
2021/08/22 10:01:37;;;;;;;5.50;4.67;;;22.20;99.90;;;;;;6263830;22;20411;-90
2021/08/22 10:04:29;;;;;;;5.53;5.00;;;22.00;99.90;;;;;;6267590;22;20390;-90
2021/08/22 10:07:06;;;;;;;5.30;4.90;;;22.00;99.90;;;;;;6238095;22;20389;-89
2021/08/22 10:09:43;;;;;;;5.70;4.80;;;22.00;99.90;;;;;;6263268;22;20543;-91
2021/08/22 10:12:08;;;;;;;5.07;4.67;;;22.00;99.90;;;;;;6239222;22;20397;-90
2021/08/22 10:14:38;;;;;;;5.63;5.13;;;22.00;99.90;;;;;;6263695;22;20404;-89
2021/08/22 10:17:07;;;;;;;5.40;5.00;;;21.90;99.90;;;;;;6263143;22;20249;-91
2021/08/22 10:19:32;;;;;;;5.53;5.03;;;21.80;99.90;;;;;;6290080;22;20816;-92
2021/08/22 10:22:18;;;;;;;5.80;5.30;;;21.60;99.90;;;;;;6265365;22;20397;-93
2021/08/22 10:24:47;;;;;;;5.40;4.90;;;21.60;99.90;;;;;;6264381;22;20170;-92
2021/08/22 10:27:40;;;;;;;4.73;4.33;;;21.70;99.90;;;;;;6237787;22;20419;-92
2021/08/22 10:30:25;;;;;;;5.70;5.20;;;21.60;99.90;;;;;;6231118;22;20443;-92
2021/08/22 10:32:57;;;;;;;5.63;5.13;;;21.60;99.90;;;;;;6262718;22;20393;-90
2021/08/22 10:35:29;;;;;;;5.40;4.90;;;21.70;99.90;;;;;;6236604;22;20400;-91
2021/08/22 10:37:55;;;;;;;4.90;4.50;;;21.70;99.90;;;;;;6262952;22;20393;-91
2021/08/22 10:40:24;;;;;;;5.40;4.90;;;21.70;99.90;;;;;;6262322;22;20403;-91
2021/08/22 10:43:05;;;;;;;5.40;4.90;;;21.60;99.90;;;;;;6237853;22;20244;-91
2021/08/22 10:45:40;;;;;;;5.00;4.50;;;21.40;99.90;;;;;;6238265;22;20948;-91
2021/08/22 10:48:06;;;;;;;5.20;4.67;;;21.30;99.90;;;;;;6238442;22;20430;-90
2021/08/22 10:50:58;;;;;;;5.77;5.20;;;21.30;99.90;;;;;;6261823;22;20389;-91
2021/08/22 10:53:24;;;;;;;5.30;4.80;;;21.20;99.90;;;;;;6262300;22;20393;-90
2021/08/22 10:55:50;;;;;;;5.80;4.70;;;21.30;99.90;;;;;;6237132;22;20401;-90
2021/08/22 10:58:15;;;;;;;5.00;4.60;;;21.20;99.90;;;;;;6208272;23;20939;-91
2021/08/22 11:00:41;;;;;;;5.57;4.97;;;21.40;99.90;;;;;;6207294;23;20159;-90
2021/08/22 11:03:16;;;;;;;5.57;5.03;;;21.60;99.90;;;;;;6207490;23;20171;-91
2021/08/22 11:05:43;;;;;;;6.30;5.70;;;21.80;99.90;;;;;;6206392;23;20675;-91
2021/08/22 11:08:20;;;;;;;5.40;5.00;;;21.80;99.90;;;;;;6208050;23;20404;-90
2021/08/22 11:10:57;;;;;;;6.47;5.10;;;21.60;99.90;;;;;;6206453;23;20492;-89
2021/08/22 11:13:23;;;;;;;5.53;5.03;;;21.70;99.90;;;;;;6206591;23;20394;-90
2021/08/22 11:15:49;;;;;;;5.77;5.37;;;21.70;99.90;;;;;;6207292;23;20891;-90
2021/08/22 11:18:18;;;;;;;5.27;4.77;;;21.80;99.90;;;;;;6207903;23;20401;-90
2021/08/22 11:20:52;;;;;;;5.40;4.90;;;21.70;99.90;;;;;;6233227;23;20341;-91
2021/08/22 11:23:19;;;;;;;5.40;5.00;;;21.20;99.90;;;;;;6233547;23;20389;-90
2021/08/22 11:25:47;;;;;;;6.27;5.67;;;21.10;99.90;;;;;;6207518;23;20929;-91
2021/08/22 11:28:15;;;;;;;6.40;5.87;;;21.10;99.90;;;;;;6206711;23;20190;-91
2021/08/22 11:30:42;;;;;;;7.50;5.43;;;21.20;99.90;;;;;;6208743;23;20721;-90
2021/08/22 11:33:09;;;;;;;5.50;5.00;;;21.30;99.90;;;;;;6208658;23;20390;-90
2021/08/22 11:35:49;;;;;;;7.23;6.07;;;21.30;99.90;;;;;;6208094;23;20409;-89
2021/08/22 11:38:18;;;;;;;5.50;5.00;;;21.30;99.90;;;;;;6208181;23;20389;-89
2021/08/22 11:40:45;;;;;;;7.53;5.93;;;21.10;99.90;;;;;;6206186;23;20402;-89
2021/08/22 11:43:12;;;;;;;7.00;6.37;;;21.20;99.90;;;;;;6235114;23;20377;-89
2021/08/22 11:45:44;;;;;;;7.80;6.53;;;21.00;99.90;;;;;;6208262;23;20493;-90
2021/08/22 11:48:18;;;;;;;6.40;5.80;;;21.00;99.90;;;;;;6231132;23;20398;-90
2021/08/22 11:50:45;;;;;;;6.80;6.20;;;20.90;99.90;;;;;;6207405;23;20389;-91
2021/08/22 11:53:11;;;;;;;6.10;5.60;;;20.80;99.90;;;;;;6206074;23;20378;-90
2021/08/22 11:55:39;;;;;;;6.30;5.80;;;20.60;99.90;;;;;;6208712;23;20816;-92
2021/08/22 11:58:11;;;;;;;6.60;6.00;;;20.50;99.90;;;;;;6236901;22;20435;-91
2021/08/22 12:00:39;;;;;;;6.70;6.10;;;20.60;99.90;;;;;;6262899;22;20923;-92
2021/08/22 12:03:05;;;;;;;5.53;5.10;;;20.40;99.90;;;;;;6238663;22;20393;-93
2021/08/22 12:05:35;;;;;;;4.03;3.73;;;20.40;99.90;;;;;;6266505;22;20393;-93
2021/08/22 12:08:12;;;;;;;3.00;2.70;;;20.20;99.90;;;;;;6239278;22;20166;-93
2021/08/22 12:10:40;;;;;;;2.80;2.47;;;19.90;99.90;;;;;;6236524;22;20652;-92
2021/08/22 12:13:21;;;;;;;2.50;2.30;;;19.70;99.90;;;;;;6239776;22;20455;-91
2021/08/22 12:15:50;;;;;;;2.40;2.20;;;19.70;99.90;;;;;;6231559;22;21107;-95
2021/08/22 12:18:20;;;;;;;2.80;2.60;;;19.40;99.90;;;;;;6232665;22;20397;-93
2021/08/22 12:20:50;;;;;;;2.50;2.30;;;19.30;99.90;;;;;;6259086;22;20405;-91
2021/08/22 12:23:16;;;;;;;3.40;3.10;;;18.90;99.90;;;;;;6232281;22;20397;-93
2021/08/22 12:25:51;;;;;;;3.27;2.97;;;19.10;99.90;;;;;;6232657;22;20429;-91
2021/08/22 12:28:27;;;;;;;2.63;2.43;;;18.90;99.90;;;;;;6257743;22;20428;-91
2021/08/22 12:31:06;;;;;;;3.30;3.00;;;18.70;99.90;;;;;;6233620;22;20435;-93
2021/08/22 12:33:43;;;;;;;2.73;2.47;;;18.70;99.90;;;;;;6240223;22;20409;-96
2021/08/22 12:36:13;;;;;;;2.97;2.77;;;18.50;99.90;;;;;;6238192;22;20752;-96
2021/08/22 12:38:48;;;;;;;3.43;3.17;;;18.40;99.90;;;;;;6236214;22;20473;-96
2021/08/22 12:41:34;;;;;;;5.73;2.97;;;18.40;99.90;;;;;;6234732;22;20393;-91
2021/08/22 12:44:31;;;;;;;2.90;2.70;;;18.40;99.90;;;;;;6258171;22;20712;-93
2021/08/22 12:47:04;;;;;;;3.00;2.77;;;18.10;99.90;;;;;;6236720;22;20766;-93
2021/08/22 12:49:31;;;;;;;4.70;2.70;;;18.00;99.90;;;;;;6238055;22;20444;-93
2021/08/22 12:52:02;;;;;;;2.50;2.30;;;17.90;99.90;;;;;;6239294;22;20399;-96
2021/08/22 12:54:29;;;;;;;3.60;3.30;;;17.80;99.90;;;;;;6237085;22;20795;-95
2021/08/22 12:56:56;;;;;;;2.73;2.53;;;17.60;99.90;;;;;;6239294;22;20409;-96
2021/08/22 12:59:23;;;;;;;2.70;2.50;;;17.50;99.90;;;;;;6265391;22;20479;-94